sensor_id;sensor_type;location;lat;lon;timestamp;P1;durP1;ratioP1;P2;durP2;ratioP2
17592;SDS011;8915;51.760;14.300;2023-02-05T00:00:18;3.13;;;2.17;;
17592;SDS011;8915;51.760;14.300;2023-02-05T00:02:47;2.10;;;1.50;;
17592;SDS011;8915;51.760;14.300;2023-02-05T00:05:13;1.80;;;1.60;;
17592;SDS011;8915;51.760;14.300;2023-02-05T00:07:40;3.13;;;2.10;;
17592;SDS011;8915;51.760;14.300;2023-02-05T00:10:06;6.23;;;2.03;;
17592;SDS011;8915;51.760;14.300;2023-02-05T00:12:35;5.53;;;2.80;;
17592;SDS011;8915;51.760;14.300;2023-02-05T00:15:02;4.20;;;2.40;;
17592;SDS011;8915;51.760;14.300;2023-02-05T00:17:29;4.30;;;2.17;;
17592;SDS011;8915;51.760;14.300;2023-02-05T00:19:56;4.20;;;1.93;;
17592;SDS011;8915;51.760;14.300;2023-02-05T00:22:22;4.33;;;2.33;;
17592;SDS011;8915;51.760;14.300;2023-02-05T00:24:48;3.33;;;1.77;;
17592;SDS011;8915;51.760;14.300;2023-02-05T00:27:15;2.73;;;2.30;;
17592;SDS011;8915;51.760;14.300;2023-02-05T00:29:42;4.33;;;2.40;;
17592;SDS011;8915;51.760;14.300;2023-02-05T00:32:09;2.33;;;2.13;;
17592;SDS011;8915;51.760;14.300;2023-02-05T00:34:35;5.70;;;2.80;;
17592;SDS011;8915;51.760;14.300;2023-02-05T00:37:01;2.10;;;1.90;;
17592;SDS011;8915;51.760;14.300;2023-02-05T00:39:28;5.37;;;1.87;;
17592;SDS011;8915;51.760;14.300;2023-02-05T00:41:59;3.30;;;2.33;;
17592;SDS011;8915;51.760;14.300;2023-02-05T00:44:28;3.20;;;1.63;;
17592;SDS011;8915;51.760;14.300;2023-02-05T00:46:55;3.87;;;2.23;;
17592;SDS011;8915;51.760;14.300;2023-02-05T00:49:22;5.60;;;2.17;;
17592;SDS011;8915;51.760;14.300;2023-02-05T00:51:49;2.73;;;1.97;;
17592;SDS011;8915;51.760;14.300;2023-02-05T00:54:15;3.00;;;1.90;;
17592;SDS011;8915;51.760;14.300;2023-02-05T00:56:41;4.67;;;2.20;;
17592;SDS011;8915;51.760;14.300;2023-02-05T00:59:08;1.97;;;1.77;;
17592;SDS011;8915;51.760;14.300;2023-02-05T01:01:34;3.10;;;1.93;;
17592;SDS011;8915;51.760;14.300;2023-02-05T01:04:06;4.30;;;2.37;;
17592;SDS011;8915;51.760;14.300;2023-02-05T01:06:32;4.37;;;2.20;;
17592;SDS011;8915;51.760;14.300;2023-02-05T01:08:59;2.37;;;1.90;;
17592;SDS011;8915;51.760;14.300;2023-02-05T01:11:27;4.30;;;2.13;;
17592;SDS011;8915;51.760;14.300;2023-02-05T01:13:54;4.87;;;2.60;;
17592;SDS011;8915;51.760;14.300;2023-02-05T01:16:20;4.23;;;2.40;;
17592;SDS011;8915;51.760;14.300;2023-02-05T01:18:46;2.97;;;1.80;;
17592;SDS011;8915;51.760;14.300;2023-02-05T01:21:14;4.30;;;2.60;;
17592;SDS011;8915;51.760;14.300;2023-02-05T01:23:42;5.17;;;2.53;;
17592;SDS011;8915;51.760;14.300;2023-02-05T01:26:08;8.90;;;3.10;;
17592;SDS011;8915;51.760;14.300;2023-02-05T01:28:34;4.20;;;2.83;;
17592;SDS011;8915;51.760;14.300;2023-02-05T01:31:01;5.67;;;2.97;;
17592;SDS011;8915;51.760;14.300;2023-02-05T01:33:27;4.33;;;2.97;;
17592;SDS011;8915;51.760;14.300;2023-02-05T01:35:54;5.87;;;2.67;;
17592;SDS011;8915;51.760;14.300;2023-02-05T01:38:22;3.43;;;2.50;;
17592;SDS011;8915;51.760;14.300;2023-02-05T01:40:49;5.57;;;2.83;;
17592;SDS011;8915;51.760;14.300;2023-02-05T01:43:15;4.13;;;2.73;;
17592;SDS011;8915;51.760;14.300;2023-02-05T01:45:48;4.13;;;2.30;;
17592;SDS011;8915;51.760;14.300;2023-02-05T01:48:26;2.87;;;1.97;;
17592;SDS011;8915;51.760;14.300;2023-02-05T01:50:58;2.80;;;1.97;;
17592;SDS011;8915;51.760;14.300;2023-02-05T01:53:31;4.17;;;2.13;;
17592;SDS011;8915;51.760;14.300;2023-02-05T01:56:01;5.67;;;2.33;;
17592;SDS011;8915;51.760;14.300;2023-02-05T01:58:32;3.93;;;2.53;;
17592;SDS011;8915;51.760;14.300;2023-02-05T02:01:00;4.80;;;2.63;;
17592;SDS011;8915;51.760;14.300;2023-02-05T02:03:27;5.63;;;2.67;;
17592;SDS011;8915;51.760;14.300;2023-02-05T02:05:56;4.60;;;2.83;;
17592;SDS011;8915;51.760;14.300;2023-02-05T02:08:23;4.57;;;2.60;;
17592;SDS011;8915;51.760;14.300;2023-02-05T02:10:51;4.90;;;2.60;;
17592;SDS011;8915;51.760;14.300;2023-02-05T02:13:20;4.10;;;2.33;;
17592;SDS011;8915;51.760;14.300;2023-02-05T02:15:48;5.93;;;3.23;;
17592;SDS011;8915;51.760;14.300;2023-02-05T02:18:15;4.70;;;2.70;;
17592;SDS011;8915;51.760;14.300;2023-02-05T02:20:59;3.70;;;2.40;;
17592;SDS011;8915;51.760;14.300;2023-02-05T02:23:54;4.20;;;2.10;;
17592;SDS011;8915;51.760;14.300;2023-02-05T02:26:40;4.87;;;2.87;;
17592;SDS011;8915;51.760;14.300;2023-02-05T02:29:20;3.63;;;2.27;;
17592;SDS011;8915;51.760;14.300;2023-02-05T02:31:54;3.73;;;2.40;;
17592;SDS011;8915;51.760;14.300;2023-02-05T02:34:25;3.20;;;2.10;;
17592;SDS011;8915;51.760;14.300;2023-02-05T02:36:57;3.13;;;2.00;;
17592;SDS011;8915;51.760;14.300;2023-02-05T02:39:32;4.20;;;2.57;;
17592;SDS011;8915;51.760;14.300;2023-02-05T02:42:05;3.53;;;1.80;;
17592;SDS011;8915;51.760;14.300;2023-02-05T02:44:39;4.33;;;1.97;;
17592;SDS011;8915;51.760;14.300;2023-02-05T02:47:10;4.03;;;1.93;;
17592;SDS011;8915;51.760;14.300;2023-02-05T02:49:40;3.47;;;1.97;;
17592;SDS011;8915;51.760;14.300;2023-02-05T02:52:12;3.27;;;2.17;;
17592;SDS011;8915;51.760;14.300;2023-02-05T02:54:42;2.87;;;2.10;;
17592;SDS011;8915;51.760;14.300;2023-02-05T02:57:12;3.03;;;2.00;;
17592;SDS011;8915;51.760;14.300;2023-02-05T02:59:44;5.00;;;2.13;;
17592;SDS011;8915;51.760;14.300;2023-02-05T03:02:12;3.13;;;2.13;;
17592;SDS011;8915;51.760;14.300;2023-02-05T03:04:41;1.83;;;1.73;;
17592;SDS011;8915;51.760;14.300;2023-02-05T03:07:12;2.67;;;1.83;;
17592;SDS011;8915;51.760;14.300;2023-02-05T03:09:44;2.63;;;2.43;;
17592;SDS011;8915;51.760;14.300;2023-02-05T03:12:17;2.60;;;1.70;;
17592;SDS011;8915;51.760;14.300;2023-02-05T03:14:44;3.93;;;2.53;;
17592;SDS011;8915;51.760;14.300;2023-02-05T03:17:11;3.40;;;2.27;;
17592;SDS011;8915;51.760;14.300;2023-02-05T03:19:43;3.70;;;2.23;;
17592;SDS011;8915;51.760;14.300;2023-02-05T03:22:09;2.93;;;1.80;;
17592;SDS011;8915;51.760;14.300;2023-02-05T03:24:36;3.63;;;1.90;;
17592;SDS011;8915;51.760;14.300;2023-02-05T03:27:04;4.40;;;2.27;;
17592;SDS011;8915;51.760;14.300;2023-02-05T03:29:31;3.33;;;2.40;;
17592;SDS011;8915;51.760;14.300;2023-02-05T03:32:11;4.10;;;1.93;;
17592;SDS011;8915;51.760;14.300;2023-02-05T03:34:50;3.07;;;1.87;;
17592;SDS011;8915;51.760;14.300;2023-02-05T03:37:32;3.93;;;1.83;;
17592;SDS011;8915;51.760;14.300;2023-02-05T03:40:09;3.97;;;2.33;;
17592;SDS011;8915;51.760;14.300;2023-02-05T03:42:45;7.00;;;2.47;;
17592;SDS011;8915;51.760;14.300;2023-02-05T03:45:20;2.23;;;1.87;;
17592;SDS011;8915;51.760;14.300;2023-02-05T03:48:08;2.83;;;1.70;;
17592;SDS011;8915;51.760;14.300;2023-02-05T03:50:40;2.90;;;1.90;;
17592;SDS011;8915;51.760;14.300;2023-02-05T03:53:13;5.27;;;2.17;;
17592;SDS011;8915;51.760;14.300;2023-02-05T03:55:49;3.17;;;2.10;;
17592;SDS011;8915;51.760;14.300;2023-02-05T03:58:22;2.90;;;2.37;;
17592;SDS011;8915;51.760;14.300;2023-02-05T04:00:54;2.60;;;2.00;;
17592;SDS011;8915;51.760;14.300;2023-02-05T04:03:21;5.30;;;2.13;;
17592;SDS011;8915;51.760;14.300;2023-02-05T04:05:49;3.80;;;2.30;;
17592;SDS011;8915;51.760;14.300;2023-02-05T04:08:17;2.63;;;1.97;;
17592;SDS011;8915;51.760;14.300;2023-02-05T04:10:48;3.80;;;2.40;;
17592;SDS011;8915;51.760;14.300;2023-02-05T04:13:15;6.57;;;2.30;;
17592;SDS011;8915;51.760;14.300;2023-02-05T04:15:42;3.37;;;2.03;;
17592;SDS011;8915;51.760;14.300;2023-02-05T04:18:10;3.03;;;1.97;;
17592;SDS011;8915;51.760;14.300;2023-02-05T04:20:38;3.90;;;2.07;;
17592;SDS011;8915;51.760;14.300;2023-02-05T04:23:06;7.50;;;2.63;;
17592;SDS011;8915;51.760;14.300;2023-02-05T04:25:34;3.77;;;2.37;;
17592;SDS011;8915;51.760;14.300;2023-02-05T04:28:02;3.27;;;2.17;;
17592;SDS011;8915;51.760;14.300;2023-02-05T04:30:30;3.03;;;1.93;;
17592;SDS011;8915;51.760;14.300;2023-02-05T04:32:57;3.43;;;1.97;;
17592;SDS011;8915;51.760;14.300;2023-02-05T04:35:23;5.63;;;2.47;;
17592;SDS011;8915;51.760;14.300;2023-02-05T04:37:51;2.20;;;1.67;;
17592;SDS011;8915;51.760;14.300;2023-02-05T04:40:18;3.47;;;2.43;;
17592;SDS011;8915;51.760;14.300;2023-02-05T04:42:44;2.40;;;1.80;;
17592;SDS011;8915;51.760;14.300;2023-02-05T04:45:11;3.07;;;2.30;;
17592;SDS011;8915;51.760;14.300;2023-02-05T04:47:37;2.13;;;1.60;;
17592;SDS011;8915;51.760;14.300;2023-02-05T04:50:04;7.07;;;2.20;;
17592;SDS011;8915;51.760;14.300;2023-02-05T04:52:35;2.13;;;1.90;;
17592;SDS011;8915;51.760;14.300;2023-02-05T04:55:03;2.40;;;2.10;;
17592;SDS011;8915;51.760;14.300;2023-02-05T04:57:30;3.03;;;1.60;;
17592;SDS011;8915;51.760;14.300;2023-02-05T04:59:56;4.53;;;2.00;;
17592;SDS011;8915;51.760;14.300;2023-02-05T05:02:22;3.47;;;2.47;;
17592;SDS011;8915;51.760;14.300;2023-02-05T05:04:49;3.30;;;2.13;;
17592;SDS011;8915;51.760;14.300;2023-02-05T05:07:15;3.20;;;1.83;;
17592;SDS011;8915;51.760;14.300;2023-02-05T05:09:42;2.97;;;1.87;;
17592;SDS011;8915;51.760;14.300;2023-02-05T05:12:09;3.63;;;2.27;;
17592;SDS011;8915;51.760;14.300;2023-02-05T05:14:36;3.90;;;2.23;;
17592;SDS011;8915;51.760;14.300;2023-02-05T05:17:02;3.10;;;2.07;;
17592;SDS011;8915;51.760;14.300;2023-02-05T05:19:35;2.60;;;1.73;;
17592;SDS011;8915;51.760;14.300;2023-02-05T05:22:01;3.43;;;1.87;;
17592;SDS011;8915;51.760;14.300;2023-02-05T05:24:27;3.03;;;2.17;;
17592;SDS011;8915;51.760;14.300;2023-02-05T05:26:54;4.97;;;2.10;;
17592;SDS011;8915;51.760;14.300;2023-02-05T05:29:21;3.33;;;2.13;;
17592;SDS011;8915;51.760;14.300;2023-02-05T05:31:50;4.43;;;2.20;;
17592;SDS011;8915;51.760;14.300;2023-02-05T05:34:17;4.40;;;2.40;;
17592;SDS011;8915;51.760;14.300;2023-02-05T05:36:43;4.93;;;2.50;;
17592;SDS011;8915;51.760;14.300;2023-02-05T05:39:11;4.93;;;2.70;;
17592;SDS011;8915;51.760;14.300;2023-02-05T05:41:55;3.40;;;1.87;;
17592;SDS011;8915;51.760;14.300;2023-02-05T05:44:40;3.77;;;1.87;;
17592;SDS011;8915;51.760;14.300;2023-02-05T05:47:06;3.17;;;2.50;;
17592;SDS011;8915;51.760;14.300;2023-02-05T05:49:33;2.40;;;1.80;;
17592;SDS011;8915;51.760;14.300;2023-02-05T05:51:59;3.20;;;2.00;;
17592;SDS011;8915;51.760;14.300;2023-02-05T05:54:27;3.20;;;2.30;;
17592;SDS011;8915;51.760;14.300;2023-02-05T05:56:53;2.10;;;1.77;;
17592;SDS011;8915;51.760;14.300;2023-02-05T05:59:20;3.60;;;2.30;;
17592;SDS011;8915;51.760;14.300;2023-02-05T06:01:47;3.90;;;1.77;;
17592;SDS011;8915;51.760;14.300;2023-02-05T06:04:14;3.23;;;2.03;;
17592;SDS011;8915;51.760;14.300;2023-02-05T06:06:40;5.33;;;2.30;;
17592;SDS011;8915;51.760;14.300;2023-02-05T06:09:06;5.07;;;2.20;;
17592;SDS011;8915;51.760;14.300;2023-02-05T06:11:33;6.57;;;2.60;;
17592;SDS011;8915;51.760;14.300;2023-02-05T06:13:59;4.23;;;2.57;;
17592;SDS011;8915;51.760;14.300;2023-02-05T06:16:26;3.53;;;2.00;;
17592;SDS011;8915;51.760;14.300;2023-02-05T06:18:53;3.87;;;2.27;;
17592;SDS011;8915;51.760;14.300;2023-02-05T06:21:20;4.87;;;2.33;;
17592;SDS011;8915;51.760;14.300;2023-02-05T06:23:46;5.10;;;3.37;;
17592;SDS011;8915;51.760;14.300;2023-02-05T06:26:13;4.00;;;2.60;;
17592;SDS011;8915;51.760;14.300;2023-02-05T06:28:39;5.43;;;2.27;;
17592;SDS011;8915;51.760;14.300;2023-02-05T06:33:33;8.90;;;4.10;;
17592;SDS011;8915;51.760;14.300;2023-02-05T06:36:01;6.67;;;4.03;;
17592;SDS011;8915;51.760;14.300;2023-02-05T06:38:27;10.07;;;5.57;;
17592;SDS011;8915;51.760;14.300;2023-02-05T06:40:54;10.43;;;4.33;;
17592;SDS011;8915;51.760;14.300;2023-02-05T06:43:20;9.57;;;4.00;;
17592;SDS011;8915;51.760;14.300;2023-02-05T06:45:46;8.00;;;3.60;;
17592;SDS011;8915;51.760;14.300;2023-02-05T06:48:13;4.60;;;2.63;;
17592;SDS011;8915;51.760;14.300;2023-02-05T06:50:39;5.87;;;3.00;;
17592;SDS011;8915;51.760;14.300;2023-02-05T06:53:07;5.40;;;2.03;;
17592;SDS011;8915;51.760;14.300;2023-02-05T06:55:33;4.40;;;2.67;;
17592;SDS011;8915;51.760;14.300;2023-02-05T06:58:00;3.97;;;2.93;;
17592;SDS011;8915;51.760;14.300;2023-02-05T07:00:26;4.43;;;2.13;;
17592;SDS011;8915;51.760;14.300;2023-02-05T07:02:52;3.80;;;2.50;;
17592;SDS011;8915;51.760;14.300;2023-02-05T07:05:20;8.23;;;4.00;;
17592;SDS011;8915;51.760;14.300;2023-02-05T07:07:47;5.70;;;3.33;;
17592;SDS011;8915;51.760;14.300;2023-02-05T07:10:15;7.00;;;4.53;;
17592;SDS011;8915;51.760;14.300;2023-02-05T07:12:41;6.73;;;3.80;;
17592;SDS011;8915;51.760;14.300;2023-02-05T07:15:08;9.03;;;4.30;;
17592;SDS011;8915;51.760;14.300;2023-02-05T07:17:34;5.77;;;4.00;;
17592;SDS011;8915;51.760;14.300;2023-02-05T07:20:02;14.90;;;5.60;;
17592;SDS011;8915;51.760;14.300;2023-02-05T07:22:29;12.03;;;7.13;;
17592;SDS011;8915;51.760;14.300;2023-02-05T07:24:55;8.90;;;5.43;;
17592;SDS011;8915;51.760;14.300;2023-02-05T07:27:24;14.67;;;6.60;;
17592;SDS011;8915;51.760;14.300;2023-02-05T07:29:50;7.07;;;3.97;;
17592;SDS011;8915;51.760;14.300;2023-02-05T07:32:17;16.20;;;6.50;;
17592;SDS011;8915;51.760;14.300;2023-02-05T07:34:43;8.43;;;4.77;;
17592;SDS011;8915;51.760;14.300;2023-02-05T07:37:09;9.13;;;3.90;;
17592;SDS011;8915;51.760;14.300;2023-02-05T07:39:36;12.97;;;6.67;;
17592;SDS011;8915;51.760;14.300;2023-02-05T07:42:03;9.63;;;6.83;;
17592;SDS011;8915;51.760;14.300;2023-02-05T07:44:40;9.30;;;5.27;;
17592;SDS011;8915;51.760;14.300;2023-02-05T07:47:06;11.07;;;5.23;;
17592;SDS011;8915;51.760;14.300;2023-02-05T07:49:33;5.97;;;4.87;;
17592;SDS011;8915;51.760;14.300;2023-02-05T07:51:59;7.10;;;3.80;;
17592;SDS011;8915;51.760;14.300;2023-02-05T07:54:26;9.03;;;3.57;;
17592;SDS011;8915;51.760;14.300;2023-02-05T07:56:52;10.70;;;5.60;;
17592;SDS011;8915;51.760;14.300;2023-02-05T07:59:19;34.63;;;17.70;;
17592;SDS011;8915;51.760;14.300;2023-02-05T08:01:47;12.97;;;8.30;;
17592;SDS011;8915;51.760;14.300;2023-02-05T08:04:13;30.77;;;14.80;;
17592;SDS011;8915;51.760;14.300;2023-02-05T08:06:40;12.50;;;7.23;;
17592;SDS011;8915;51.760;14.300;2023-02-05T08:09:07;9.00;;;4.70;;
17592;SDS011;8915;51.760;14.300;2023-02-05T08:11:33;9.57;;;4.30;;
17592;SDS011;8915;51.760;14.300;2023-02-05T08:14:00;7.13;;;4.10;;
17592;SDS011;8915;51.760;14.300;2023-02-05T08:16:26;7.07;;;4.53;;
17592;SDS011;8915;51.760;14.300;2023-02-05T08:18:54;6.97;;;5.00;;
17592;SDS011;8915;51.760;14.300;2023-02-05T08:21:20;9.17;;;4.00;;
17592;SDS011;8915;51.760;14.300;2023-02-05T08:23:47;6.13;;;3.70;;
17592;SDS011;8915;51.760;14.300;2023-02-05T08:26:13;7.97;;;4.20;;
17592;SDS011;8915;51.760;14.300;2023-02-05T08:28:44;10.10;;;4.70;;
17592;SDS011;8915;51.760;14.300;2023-02-05T08:31:11;8.07;;;3.93;;
17592;SDS011;8915;51.760;14.300;2023-02-05T08:33:39;7.67;;;4.50;;
17592;SDS011;8915;51.760;14.300;2023-02-05T08:36:07;7.87;;;4.23;;
17592;SDS011;8915;51.760;14.300;2023-02-05T08:38:34;9.57;;;5.27;;
17592;SDS011;8915;51.760;14.300;2023-02-05T08:41:04;10.63;;;5.63;;
17592;SDS011;8915;51.760;14.300;2023-02-05T08:43:38;8.33;;;5.20;;
17592;SDS011;8915;51.760;14.300;2023-02-05T08:46:05;9.83;;;5.70;;
17592;SDS011;8915;51.760;14.300;2023-02-05T08:48:32;9.47;;;6.43;;
17592;SDS011;8915;51.760;14.300;2023-02-05T08:50:59;8.97;;;5.27;;
17592;SDS011;8915;51.760;14.300;2023-02-05T08:53:28;9.23;;;4.83;;
17592;SDS011;8915;51.760;14.300;2023-02-05T08:55:54;6.73;;;4.10;;
17592;SDS011;8915;51.760;14.300;2023-02-05T08:58:21;9.20;;;5.50;;
17592;SDS011;8915;51.760;14.300;2023-02-05T09:00:48;10.47;;;5.37;;
17592;SDS011;8915;51.760;14.300;2023-02-05T09:03:15;9.00;;;5.23;;
17592;SDS011;8915;51.760;14.300;2023-02-05T09:05:41;8.70;;;4.83;;
17592;SDS011;8915;51.760;14.300;2023-02-05T09:08:08;7.90;;;3.87;;
17592;SDS011;8915;51.760;14.300;2023-02-05T09:10:35;7.10;;;4.70;;
17592;SDS011;8915;51.760;14.300;2023-02-05T09:13:03;5.77;;;3.97;;
17592;SDS011;8915;51.760;14.300;2023-02-05T09:15:29;4.50;;;3.20;;
17592;SDS011;8915;51.760;14.300;2023-02-05T09:17:55;4.57;;;3.03;;
17592;SDS011;8915;51.760;14.300;2023-02-05T09:20:22;7.23;;;3.27;;
17592;SDS011;8915;51.760;14.300;2023-02-05T09:22:48;5.83;;;3.23;;
17592;SDS011;8915;51.760;14.300;2023-02-05T09:25:18;6.87;;;3.67;;
17592;SDS011;8915;51.760;14.300;2023-02-05T09:27:45;5.03;;;3.53;;
17592;SDS011;8915;51.760;14.300;2023-02-05T09:30:12;8.50;;;4.30;;
17592;SDS011;8915;51.760;14.300;2023-02-05T09:32:40;12.80;;;6.07;;
17592;SDS011;8915;51.760;14.300;2023-02-05T09:35:06;23.73;;;12.27;;
17592;SDS011;8915;51.760;14.300;2023-02-05T09:37:34;17.60;;;9.70;;
17592;SDS011;8915;51.760;14.300;2023-02-05T09:40:01;9.50;;;4.70;;
17592;SDS011;8915;51.760;14.300;2023-02-05T09:42:31;9.83;;;5.60;;
17592;SDS011;8915;51.760;14.300;2023-02-05T09:45:10;7.93;;;4.30;;
17592;SDS011;8915;51.760;14.300;2023-02-05T09:47:48;9.93;;;5.60;;
17592;SDS011;8915;51.760;14.300;2023-02-05T09:50:21;11.73;;;7.67;;
17592;SDS011;8915;51.760;14.300;2023-02-05T09:52:53;15.27;;;4.67;;
17592;SDS011;8915;51.760;14.300;2023-02-05T09:55:25;8.03;;;4.57;;
17592;SDS011;8915;51.760;14.300;2023-02-05T09:57:54;26.47;;;9.60;;
17592;SDS011;8915;51.760;14.300;2023-02-05T10:00:29;15.37;;;9.10;;
17592;SDS011;8915;51.760;14.300;2023-02-05T10:03:01;31.13;;;19.13;;
17592;SDS011;8915;51.760;14.300;2023-02-05T10:05:37;15.40;;;9.17;;
17592;SDS011;8915;51.760;14.300;2023-02-05T10:08:11;17.27;;;11.10;;
17592;SDS011;8915;51.760;14.300;2023-02-05T10:10:44;7.90;;;4.67;;
17592;SDS011;8915;51.760;14.300;2023-02-05T10:13:18;13.80;;;8.37;;
17592;SDS011;8915;51.760;14.300;2023-02-05T10:16:04;9.20;;;4.57;;
17592;SDS011;8915;51.760;14.300;2023-02-05T10:18:41;15.43;;;8.20;;
17592;SDS011;8915;51.760;14.300;2023-02-05T10:21:20;25.30;;;14.87;;
17592;SDS011;8915;51.760;14.300;2023-02-05T10:24:05;15.43;;;9.90;;
17592;SDS011;8915;51.760;14.300;2023-02-05T10:26:45;13.57;;;10.20;;
17592;SDS011;8915;51.760;14.300;2023-02-05T10:29:15;10.07;;;4.50;;
17592;SDS011;8915;51.760;14.300;2023-02-05T10:31:55;13.50;;;4.53;;
17592;SDS011;8915;51.760;14.300;2023-02-05T10:34:36;8.27;;;5.23;;
17592;SDS011;8915;51.760;14.300;2023-02-05T10:37:13;8.93;;;4.30;;
17592;SDS011;8915;51.760;14.300;2023-02-05T10:39:43;12.23;;;6.20;;
17592;SDS011;8915;51.760;14.300;2023-02-05T10:42:14;13.23;;;6.43;;
17592;SDS011;8915;51.760;14.300;2023-02-05T10:44:48;6.17;;;2.83;;
17592;SDS011;8915;51.760;14.300;2023-02-05T10:47:22;5.20;;;2.77;;
17592;SDS011;8915;51.760;14.300;2023-02-05T10:49:59;5.30;;;2.90;;
17592;SDS011;8915;51.760;14.300;2023-02-05T10:52:28;5.53;;;3.00;;
17592;SDS011;8915;51.760;14.300;2023-02-05T10:54:56;5.00;;;2.33;;
17592;SDS011;8915;51.760;14.300;2023-02-05T10:57:22;7.40;;;3.10;;
17592;SDS011;8915;51.760;14.300;2023-02-05T10:59:52;7.47;;;3.70;;
17592;SDS011;8915;51.760;14.300;2023-02-05T11:02:31;5.30;;;2.87;;
17592;SDS011;8915;51.760;14.300;2023-02-05T11:05:00;6.00;;;2.57;;
17592;SDS011;8915;51.760;14.300;2023-02-05T11:07:30;6.50;;;2.50;;
17592;SDS011;8915;51.760;14.300;2023-02-05T11:10:11;5.30;;;2.97;;
17592;SDS011;8915;51.760;14.300;2023-02-05T11:12:39;5.17;;;3.07;;
17592;SDS011;8915;51.760;14.300;2023-02-05T11:15:13;7.07;;;3.50;;
17592;SDS011;8915;51.760;14.300;2023-02-05T11:17:49;8.40;;;5.10;;
17592;SDS011;8915;51.760;14.300;2023-02-05T11:20:21;6.73;;;3.60;;
17592;SDS011;8915;51.760;14.300;2023-02-05T11:22:51;5.83;;;2.93;;
17592;SDS011;8915;51.760;14.300;2023-02-05T11:25:31;5.47;;;3.57;;
17592;SDS011;8915;51.760;14.300;2023-02-05T11:27:58;5.17;;;2.47;;
17592;SDS011;8915;51.760;14.300;2023-02-05T11:30:28;5.90;;;2.93;;
17592;SDS011;8915;51.760;14.300;2023-02-05T11:32:58;3.73;;;2.40;;
17592;SDS011;8915;51.760;14.300;2023-02-05T11:35:40;5.60;;;2.57;;
17592;SDS011;8915;51.760;14.300;2023-02-05T11:38:17;3.73;;;2.20;;
17592;SDS011;8915;51.760;14.300;2023-02-05T11:40:53;4.37;;;2.30;;
17592;SDS011;8915;51.760;14.300;2023-02-05T11:43:24;3.53;;;2.50;;
17592;SDS011;8915;51.760;14.300;2023-02-05T11:45:52;8.03;;;4.90;;
17592;SDS011;8915;51.760;14.300;2023-02-05T11:48:25;7.33;;;4.23;;
17592;SDS011;8915;51.760;14.300;2023-02-05T11:50:57;4.60;;;3.07;;
17592;SDS011;8915;51.760;14.300;2023-02-05T11:53:24;9.90;;;6.37;;
17592;SDS011;8915;51.760;14.300;2023-02-05T11:55:51;9.93;;;5.53;;
17592;SDS011;8915;51.760;14.300;2023-02-05T11:58:21;6.00;;;3.03;;
17592;SDS011;8915;51.760;14.300;2023-02-05T12:00:51;4.27;;;2.77;;
17592;SDS011;8915;51.760;14.300;2023-02-05T12:03:21;4.40;;;2.50;;
17592;SDS011;8915;51.760;14.300;2023-02-05T12:05:53;5.77;;;2.60;;
17592;SDS011;8915;51.760;14.300;2023-02-05T12:08:29;5.27;;;3.60;;
17592;SDS011;8915;51.760;14.300;2023-02-05T12:11:06;4.57;;;3.43;;
17592;SDS011;8915;51.760;14.300;2023-02-05T12:13:50;6.57;;;3.60;;
17592;SDS011;8915;51.760;14.300;2023-02-05T12:16:27;2.93;;;2.37;;
17592;SDS011;8915;51.760;14.300;2023-02-05T12:19:11;3.10;;;1.97;;
17592;SDS011;8915;51.760;14.300;2023-02-05T12:21:46;3.60;;;2.27;;
17592;SDS011;8915;51.760;14.300;2023-02-05T12:24:22;3.33;;;2.20;;
17592;SDS011;8915;51.760;14.300;2023-02-05T12:27:05;2.70;;;1.93;;
17592;SDS011;8915;51.760;14.300;2023-02-05T12:29:45;3.93;;;2.70;;
17592;SDS011;8915;51.760;14.300;2023-02-05T12:32:20;3.43;;;2.17;;
17592;SDS011;8915;51.760;14.300;2023-02-05T12:35:00;4.20;;;2.20;;
17592;SDS011;8915;51.760;14.300;2023-02-05T12:37:48;2.17;;;1.63;;
17592;SDS011;8915;51.760;14.300;2023-02-05T12:40:31;5.10;;;2.43;;
17592;SDS011;8915;51.760;14.300;2023-02-05T12:43:05;3.67;;;2.20;;
17592;SDS011;8915;51.760;14.300;2023-02-05T12:45:41;2.67;;;1.60;;
17592;SDS011;8915;51.760;14.300;2023-02-05T12:48:17;2.97;;;2.10;;
17592;SDS011;8915;51.760;14.300;2023-02-05T12:51:02;5.87;;;2.13;;
17592;SDS011;8915;51.760;14.300;2023-02-05T12:53:46;4.70;;;2.40;;
17592;SDS011;8915;51.760;14.300;2023-02-05T12:56:30;11.03;;;3.30;;
17592;SDS011;8915;51.760;14.300;2023-02-05T12:59:06;3.77;;;2.63;;
17592;SDS011;8915;51.760;14.300;2023-02-05T13:01:40;4.13;;;2.87;;
17592;SDS011;8915;51.760;14.300;2023-02-05T13:04:20;3.13;;;1.80;;
17592;SDS011;8915;51.760;14.300;2023-02-05T13:06:51;4.40;;;2.00;;
17592;SDS011;8915;51.760;14.300;2023-02-05T13:09:21;4.23;;;2.20;;
17592;SDS011;8915;51.760;14.300;2023-02-05T13:11:55;5.13;;;3.20;;
17592;SDS011;8915;51.760;14.300;2023-02-05T13:14:28;3.33;;;2.40;;
17592;SDS011;8915;51.760;14.300;2023-02-05T13:17:00;3.43;;;2.70;;
17592;SDS011;8915;51.760;14.300;2023-02-05T13:19:31;4.10;;;2.30;;
17592;SDS011;8915;51.760;14.300;2023-02-05T13:22:00;2.63;;;1.90;;
17592;SDS011;8915;51.760;14.300;2023-02-05T13:24:56;16.10;;;7.30;;
17592;SDS011;8915;51.760;14.300;2023-02-05T13:27:45;11.33;;;6.60;;
17592;SDS011;8915;51.760;14.300;2023-02-05T13:30:35;10.77;;;6.50;;
17592;SDS011;8915;51.760;14.300;2023-02-05T13:33:05;7.97;;;4.00;;
17592;SDS011;8915;51.760;14.300;2023-02-05T13:35:38;7.23;;;2.27;;
17592;SDS011;8915;51.760;14.300;2023-02-05T13:38:12;3.23;;;2.27;;
17592;SDS011;8915;51.760;14.300;2023-02-05T13:41:01;7.67;;;2.30;;
17592;SDS011;8915;51.760;14.300;2023-02-05T13:43:49;3.30;;;2.10;;
17592;SDS011;8915;51.760;14.300;2023-02-05T13:50:04;2.97;;;2.23;;
17592;SDS011;8915;51.760;14.300;2023-02-05T13:52:58;3.53;;;1.90;;
17592;SDS011;8915;51.760;14.300;2023-02-05T13:55:47;4.80;;;1.97;;
17592;SDS011;8915;51.760;14.300;2023-02-05T13:58:28;3.97;;;2.13;;
17592;SDS011;8915;51.760;14.300;2023-02-05T14:00:59;2.13;;;1.70;;
17592;SDS011;8915;51.760;14.300;2023-02-05T14:03:29;1.97;;;1.57;;
17592;SDS011;8915;51.760;14.300;2023-02-05T14:06:15;4.10;;;1.60;;
17592;SDS011;8915;51.760;14.300;2023-02-05T14:08:47;3.37;;;1.53;;
17592;SDS011;8915;51.760;14.300;2023-02-05T14:11:16;1.63;;;1.50;;
17592;SDS011;8915;51.760;14.300;2023-02-05T14:16:45;2.27;;;1.50;;
17592;SDS011;8915;51.760;14.300;2023-02-05T14:19:14;2.77;;;1.87;;
17592;SDS011;8915;51.760;14.300;2023-02-05T14:21:55;2.10;;;1.57;;
17592;SDS011;8915;51.760;14.300;2023-02-05T14:24:25;4.00;;;3.50;;
17592;SDS011;8915;51.760;14.300;2023-02-05T14:27:18;3.57;;;2.17;;
17592;SDS011;8915;51.760;14.300;2023-02-05T14:29:45;5.30;;;1.60;;
17592;SDS011;8915;51.760;14.300;2023-02-05T14:32:54;3.33;;;1.47;;
17592;SDS011;8915;51.760;14.300;2023-02-05T14:35:26;1.67;;;1.20;;
17592;SDS011;8915;51.760;14.300;2023-02-05T14:37:55;2.33;;;1.50;;
17592;SDS011;8915;51.760;14.300;2023-02-05T14:40:29;1.40;;;1.10;;
17592;SDS011;8915;51.760;14.300;2023-02-05T14:43:00;1.70;;;1.27;;
17592;SDS011;8915;51.760;14.300;2023-02-05T14:45:42;2.23;;;1.07;;
17592;SDS011;8915;51.760;14.300;2023-02-05T14:48:19;1.63;;;1.40;;
17592;SDS011;8915;51.760;14.300;2023-02-05T14:51:01;1.73;;;1.23;;
17592;SDS011;8915;51.760;14.300;2023-02-05T14:53:30;1.97;;;1.60;;
17592;SDS011;8915;51.760;14.300;2023-02-05T14:55:58;2.27;;;1.40;;
17592;SDS011;8915;51.760;14.300;2023-02-05T14:58:28;9.90;;;6.10;;
17592;SDS011;8915;51.760;14.300;2023-02-05T15:04:21;21.23;;;11.20;;
17592;SDS011;8915;51.760;14.300;2023-02-05T15:06:58;29.17;;;15.87;;
17592;SDS011;8915;51.760;14.300;2023-02-05T15:18:04;4.87;;;2.77;;
17592;SDS011;8915;51.760;14.300;2023-02-05T15:37:37;3.80;;;2.70;;
17592;SDS011;8915;51.760;14.300;2023-02-05T15:48:21;16.97;;;11.43;;
17592;SDS011;8915;51.760;14.300;2023-02-05T15:50:50;11.33;;;7.97;;
17592;SDS011;8915;51.760;14.300;2023-02-05T15:53:23;6.70;;;4.83;;